Flight Track Log - Related Links

Times and Time Zones

All times are in EDT time to prevent confusion due to time zone crossing. See the SKW5631 flight status page for this flight to view local times or setup timezone preferences in your user account.


Time Position Orientation Groundspeed Altitude Reporting Facility
EDT Latitude Longitude Course Direction KTS MPH feet Rate Location/Type
Sat 10:27:00 PM 36.8811 -121.4642 135° Southeast  Level Estimated
Sat 10:28:00 PM 36.7987 -121.3641 136° Southeast  Level Estimated
Sat 10:29:00 PM 36.7162 -121.2642 136° Southeast  Level Estimated
Sat 10:30:00 PM 36.6336 -121.1645 136° Southeast  Level Estimated
Sat 10:31:00 PM 36.5510 -121.0650 136° Southeast  Level Estimated
Sat 10:32:00 PM 36.4682 -120.9657 136° Southeast  Level Estimated
Sat 10:33:00 PM 36.3854 -120.8667 136° Southeast  Level Estimated
Sat 10:34:00 PM 36.3025 -120.7678 136° Southeast  Level Estimated
Sat 10:35:00 PM 36.2195 -120.6692 136° Southeast  Level Estimated
Sat 10:36:00 PM 36.1364 -120.5707 136° Southeast  Level Estimated
Sat 10:37:00 PM 36.0532 -120.4725 136° Southeast  Level Estimated
Sat 10:38:00 PM 35.9700 -120.3745 136° Southeast  Level Estimated
Sat 10:39:00 PM 35.8867 -120.2767 136° Southeast  Level Estimated
Sat 10:40:00 PM 35.8033 -120.1791 136° Southeast  Level Estimated
Sat 10:41:00 PM 35.7198 -120.0817 137° Southeast  Level Estimated
Sat 10:42:00 PM 35.6362 -119.9845 137° Southeast  Level Estimated
Sat 10:43:00 PM 35.5526 -119.8875 137° Southeast  Level Estimated
Sat 10:44:00 PM 35.4689 -119.7907 137° Southeast  Level Estimated
Sat 10:45:00 PM 35.3851 -119.6941 137° Southeast  Level Estimated
Sat 10:46:00 PM 35.3012 -119.5977 137° Southeast  Level Estimated
Sat 10:47:00 PM 35.2173 -119.5015 137° Southeast  Level Estimated
Sat 10:48:00 PM 35.1333 -119.4056 137° Southeast  Level Estimated
Sat 10:49:00 PM 35.0492 -119.3098 137° Southeast  Level Estimated
Sat 10:50:00 PM 34.9650 -119.2142 137° Southeast  Level Estimated
Sat 10:51:00 PM 34.8808 -119.1188 137° Southeast  Level Estimated
Sat 10:52:00 PM 34.7965 -119.0236 137° Southeast  Level Estimated
Sat 10:53:00 PM 34.7121 -118.9286 137° Southeast  Level Estimated
Sat 10:54:00 PM 34.6276 -118.8338 137° Southeast  Level Estimated
Sat 10:55:00 PM 34.5431 -118.7391 137° Southeast  Level Estimated
Sat 10:56:00 PM 34.4585 -118.6447 137° Southeast  Level Estimated
Sat 10:57:00 PM 34.3738 -118.5505 137° Southeast  Level Estimated
Sat 10:58:00 PM 34.2890 -118.4564 137° Southeast  Level Estimated
Sat 10:59:00 PM 34.2042 -118.3626 138° Southeast  Level Estimated
Sat 11:00:00 PM 34.2007 -118.3587 138° Southeast  Level Estimated
Sat 11:01:00 PM 34.2007 -118.3587 140° Southeast  Level Estimated
Sat 11:02:00 PM 34.2007 -118.3587 140° Southeast  Level Estimated
Sat 11:03:00 PM 34.2007 -118.3587 140° Southeast  Level Estimated
Sat 11:04:00 PM 34.2007 -118.3587 140° Southeast  Level Estimated
Sat 11:05:00 PM 34.2007 -118.3587 140° Southeast  Level Estimated
Sat 11:06:00 PM 34.2007 -118.3587 140° Southeast  Level Estimated
Sat 11:07:00 PM 34.2007 -118.3587 140° Southeast  Level Estimated
Sat 11:08:00 PM 34.2007 -118.3587 140° Southeast  Level Estimated
Sat 11:09:00 PM 34.2007 -118.3587 140° Southeast  Level Estimated
Sat 11:10:00 PM 34.2007 -118.3587 140° Southeast  Level Estimated
Sat 11:11:00 PM 34.2007 -118.3587 140° Southeast  Level Estimated
Sat 11:12:00 PM 34.2007 -118.3587 140° Southeast  Level Estimated
Sat 11:13:00 PM 34.2007 -118.3587 140° Southeast  Level Estimated
Sat 11:14:00 PM 34.2007 -118.3587 140° Southeast  Level Estimated
Sat 11:15:00 PM 34.2007 -118.3587 140° Southeast  Level Estimated

Login

Don't have an account? Register now (free) for customized features, flight alerts, and more!